sensor_id;sensor_type;location;lat;lon;timestamp;temperature;humidity
31597;DHT22;18201;50.978;7.034;2023-05-19T00:39:57;9.30;99.90
31597;DHT22;18201;50.978;7.034;2023-05-19T00:40:30;9.30;99.90
31597;DHT22;18201;50.978;7.034;2023-05-19T00:41:03;9.20;99.90
31597;DHT22;18201;50.978;7.034;2023-05-19T00:41:34;9.20;99.90
31597;DHT22;18201;50.978;7.034;2023-05-19T00:42:06;9.20;99.90
31597;DHT22;18201;50.978;7.034;2023-05-19T00:42:37;9.20;99.90
31597;DHT22;18201;50.978;7.034;2023-05-19T00:43:08;9.10;99.90
31597;DHT22;18201;50.978;7.034;2023-05-19T00:43:40;9.20;99.90
31597;DHT22;18201;50.978;7.034;2023-05-19T00:44:11;9.20;99.90
31597;DHT22;18201;50.978;7.034;2023-05-19T00:44:42;9.10;99.90
31597;DHT22;18201;50.978;7.034;2023-05-19T00:45:14;9.10;99.90
31597;DHT22;18201;50.978;7.034;2023-05-19T00:45:45;9.10;99.90
31597;DHT22;18201;50.978;7.034;2023-05-19T00:46:17;9.20;99.90
31597;DHT22;18201;50.978;7.034;2023-05-19T00:46:49;9.20;99.90
31597;DHT22;18201;50.978;7.034;2023-05-19T00:47:20;9.10;99.90
31597;DHT22;18201;50.978;7.034;2023-05-19T00:47:51;9.10;99.90
31597;DHT22;18201;50.978;7.034;2023-05-19T00:48:24;9.10;99.90
31597;DHT22;18201;50.978;7.034;2023-05-19T00:48:55;9.10;99.90
31597;DHT22;18201;50.978;7.034;2023-05-19T00:49:26;9.10;99.90
31597;DHT22;18201;50.978;7.034;2023-05-19T00:49:58;9.20;99.90
31597;DHT22;18201;50.978;7.034;2023-05-19T00:50:29;9.10;99.90
31597;DHT22;18201;50.978;7.034;2023-05-19T00:51:00;9.10;99.90
31597;DHT22;18201;50.978;7.034;2023-05-19T00:51:33;9.10;99.90
31597;DHT22;18201;50.978;7.034;2023-05-19T00:52:05;9.10;99.90
31597;DHT22;18201;50.978;7.034;2023-05-19T00:52:36;9.10;99.90
31597;DHT22;18201;50.978;7.034;2023-05-19T00:53:08;9.10;99.90
31597;DHT22;18201;50.978;7.034;2023-05-19T00:53:39;9.10;99.90
31597;DHT22;18201;50.978;7.034;2023-05-19T00:54:11;9.10;99.90
31597;DHT22;18201;50.978;7.034;2023-05-19T00:54:43;9.10;99.90
31597;DHT22;18201;50.978;7.034;2023-05-19T00:55:16;9.10;99.90
31597;DHT22;18201;50.978;7.034;2023-05-19T00:55:47;9.10;99.90
31597;DHT22;18201;50.978;7.034;2023-05-19T00:56:20;9.10;99.90
31597;DHT22;18201;50.978;7.034;2023-05-19T00:56:52;9.00;99.90
31597;DHT22;18201;50.978;7.034;2023-05-19T00:57:23;9.10;99.90
31597;DHT22;18201;50.978;7.034;2023-05-19T00:57:56;9.00;99.90
31597;DHT22;18201;50.978;7.034;2023-05-19T00:58:28;9.10;99.90
31597;DHT22;18201;50.978;7.034;2023-05-19T00:58:59;9.00;99.90
31597;DHT22;18201;50.978;7.034;2023-05-19T00:59:31;9.00;99.90
31597;DHT22;18201;50.978;7.034;2023-05-19T01:00:03;9.10;99.90
31597;DHT22;18201;50.978;7.034;2023-05-19T01:00:35;9.00;99.90
31597;DHT22;18201;50.978;7.034;2023-05-19T01:01:06;9.00;99.90
31597;DHT22;18201;50.978;7.034;2023-05-19T01:01:38;9.00;99.90
31597;DHT22;18201;50.978;7.034;2023-05-19T01:02:09;9.00;99.90
31597;DHT22;18201;50.978;7.034;2023-05-19T01:02:40;9.00;99.90
31597;DHT22;18201;50.978;7.034;2023-05-19T01:03:12;9.00;99.90
31597;DHT22;18201;50.978;7.034;2023-05-19T01:03:44;9.00;99.90
31597;DHT22;18201;50.978;7.034;2023-05-19T01:04:18;9.00;99.90
31597;DHT22;18201;50.978;7.034;2023-05-19T01:04:50;8.90;99.90
31597;DHT22;18201;50.978;7.034;2023-05-19T01:05:22;9.00;99.90
31597;DHT22;18201;50.978;7.034;2023-05-19T01:05:53;8.90;99.90
31597;DHT22;18201;50.978;7.034;2023-05-19T01:06:24;9.00;99.90
31597;DHT22;18201;50.978;7.034;2023-05-19T01:06:57;8.90;99.90
31597;DHT22;18201;50.978;7.034;2023-05-19T01:07:28;8.90;99.90
31597;DHT22;18201;50.978;7.034;2023-05-19T01:07:59;9.00;99.90
31597;DHT22;18201;50.978;7.034;2023-05-19T01:08:32;8.90;99.90
31597;DHT22;18201;50.978;7.034;2023-05-19T01:09:03;8.90;99.90
31597;DHT22;18201;50.978;7.034;2023-05-19T01:09:34;8.90;99.90
31597;DHT22;18201;50.978;7.034;2023-05-19T01:10:06;8.90;99.90
31597;DHT22;18201;50.978;7.034;2023-05-19T01:10:39;8.90;99.90
31597;DHT22;18201;50.978;7.034;2023-05-19T01:11:10;8.90;99.90
31597;DHT22;18201;50.978;7.034;2023-05-19T01:11:41;8.90;99.90
31597;DHT22;18201;50.978;7.034;2023-05-19T01:12:13;8.90;99.90
31597;DHT22;18201;50.978;7.034;2023-05-19T01:12:44;8.80;99.90
31597;DHT22;18201;50.978;7.034;2023-05-19T01:13:16;8.80;99.90
31597;DHT22;18201;50.978;7.034;2023-05-19T01:13:47;8.80;99.90
31597;DHT22;18201;50.978;7.034;2023-05-19T01:14:19;8.80;99.90
31597;DHT22;18201;50.978;7.034;2023-05-19T01:14:51;8.80;99.90
31597;DHT22;18201;50.978;7.034;2023-05-19T01:15:22;8.80;99.90
31597;DHT22;18201;50.978;7.034;2023-05-19T01:16:00;8.80;99.90
31597;DHT22;18201;50.978;7.034;2023-05-19T01:16:36;8.80;99.90
31597;DHT22;18201;50.978;7.034;2023-05-19T01:17:18;8.80;99.90
31597;DHT22;18201;50.978;7.034;2023-05-19T01:17:57;8.70;99.90
31597;DHT22;18201;50.978;7.034;2023-05-19T01:18:37;8.70;99.90
31597;DHT22;18201;50.978;7.034;2023-05-19T01:19:25;8.70;99.90
31597;DHT22;18201;50.978;7.034;2023-05-19T01:20:05;8.70;99.90
31597;DHT22;18201;50.978;7.034;2023-05-19T01:20:44;8.70;99.90
31597;DHT22;18201;50.978;7.034;2023-05-19T01:21:35;8.70;99.90
31597;DHT22;18201;50.978;7.034;2023-05-19T01:22:26;8.70;99.90
31597;DHT22;18201;50.978;7.034;2023-05-19T01:23:22;8.70;99.90
31597;DHT22;18201;50.978;7.034;2023-05-19T01:24:08;8.70;99.90
31597;DHT22;18201;50.978;7.034;2023-05-19T01:27:17;8.60;99.90
31597;DHT22;18201;50.978;7.034;2023-05-19T01:28:20;8.70;99.90
31597;DHT22;18201;50.978;7.034;2023-05-19T01:29:16;8.60;99.90
31597;DHT22;18201;50.978;7.034;2023-05-19T01:30:24;8.60;99.90
31597;DHT22;18201;50.978;7.034;2023-05-19T01:30:57;8.70;99.90
31597;DHT22;18201;50.978;7.034;2023-05-19T01:31:29;8.60;99.90
31597;DHT22;18201;50.978;7.034;2023-05-19T01:32:03;8.60;99.90
31597;DHT22;18201;50.978;7.034;2023-05-19T01:32:37;8.60;99.90
31597;DHT22;18201;50.978;7.034;2023-05-19T01:33:12;8.60;99.90
31597;DHT22;18201;50.978;7.034;2023-05-19T01:33:44;8.60;99.90
31597;DHT22;18201;50.978;7.034;2023-05-19T01:34:17;8.60;99.90
31597;DHT22;18201;50.978;7.034;2023-05-19T01:34:50;8.60;99.90
31597;DHT22;18201;50.978;7.034;2023-05-19T01:35:23;8.60;99.90
31597;DHT22;18201;50.978;7.034;2023-05-19T01:35:54;8.60;99.90
31597;DHT22;18201;50.978;7.034;2023-05-19T01:36:26;8.60;99.90
31597;DHT22;18201;50.978;7.034;2023-05-19T01:37:00;8.60;99.90
31597;DHT22;18201;50.978;7.034;2023-05-19T01:37:31;8.50;99.90
31597;DHT22;18201;50.978;7.034;2023-05-19T01:38:04;8.50;99.90
31597;DHT22;18201;50.978;7.034;2023-05-19T01:38:39;8.50;99.90
31597;DHT22;18201;50.978;7.034;2023-05-19T01:39:10;8.50;99.90
31597;DHT22;18201;50.978;7.034;2023-05-19T01:39:43;8.50;99.90
31597;DHT22;18201;50.978;7.034;2023-05-19T01:40:16;8.50;99.90
31597;DHT22;18201;50.978;7.034;2023-05-19T01:40:48;8.50;99.90
31597;DHT22;18201;50.978;7.034;2023-05-19T01:41:20;8.40;99.90
31597;DHT22;18201;50.978;7.034;2023-05-19T01:41:54;8.40;99.90
31597;DHT22;18201;50.978;7.034;2023-05-19T01:42:25;8.40;99.90
31597;DHT22;18201;50.978;7.034;2023-05-19T01:42:58;8.40;99.90
31597;DHT22;18201;50.978;7.034;2023-05-19T01:43:32;8.40;99.90
31597;DHT22;18201;50.978;7.034;2023-05-19T01:44:03;8.40;99.90
31597;DHT22;18201;50.978;7.034;2023-05-19T01:44:35;8.40;99.90
31597;DHT22;18201;50.978;7.034;2023-05-19T01:45:08;8.40;99.90
31597;DHT22;18201;50.978;7.034;2023-05-19T01:45:41;8.40;99.90
31597;DHT22;18201;50.978;7.034;2023-05-19T01:46:14;8.40;99.90
31597;DHT22;18201;50.978;7.034;2023-05-19T01:46:46;8.40;99.90
31597;DHT22;18201;50.978;7.034;2023-05-19T01:47:18;8.40;99.90
31597;DHT22;18201;50.978;7.034;2023-05-19T01:47:52;8.40;99.90
31597;DHT22;18201;50.978;7.034;2023-05-19T01:48:23;8.40;99.90
31597;DHT22;18201;50.978;7.034;2023-05-19T01:48:55;8.40;99.90
31597;DHT22;18201;50.978;7.034;2023-05-19T01:49:27;8.40;99.90
31597;DHT22;18201;50.978;7.034;2023-05-19T01:49:58;8.40;99.90
31597;DHT22;18201;50.978;7.034;2023-05-19T01:50:29;8.40;99.90
31597;DHT22;18201;50.978;7.034;2023-05-19T03:07:40;7.20;99.90
31597;DHT22;18201;50.978;7.034;2023-05-19T03:08:12;7.20;99.90
31597;DHT22;18201;50.978;7.034;2023-05-19T03:08:43;7.10;99.90
31597;DHT22;18201;50.978;7.034;2023-05-19T03:09:14;7.10;99.90
31597;DHT22;18201;50.978;7.034;2023-05-19T03:09:46;7.10;99.90
31597;DHT22;18201;50.978;7.034;2023-05-19T03:10:17;7.10;99.90
31597;DHT22;18201;50.978;7.034;2023-05-19T03:10:48;7.10;99.90
31597;DHT22;18201;50.978;7.034;2023-05-19T03:11:19;7.10;99.90
31597;DHT22;18201;50.978;7.034;2023-05-19T03:11:50;7.10;99.90
31597;DHT22;18201;50.978;7.034;2023-05-19T03:12:21;7.10;99.90
31597;DHT22;18201;50.978;7.034;2023-05-19T03:12:54;7.10;99.90
31597;DHT22;18201;50.978;7.034;2023-05-19T03:13:25;7.10;99.90
31597;DHT22;18201;50.978;7.034;2023-05-19T03:13:55;7.00;99.90
31597;DHT22;18201;50.978;7.034;2023-05-19T05:30:24;7.60;99.90
31597;DHT22;18201;50.978;7.034;2023-05-19T05:30:55;7.60;99.90
31597;DHT22;18201;50.978;7.034;2023-05-19T05:31:27;7.60;99.90
31597;DHT22;18201;50.978;7.034;2023-05-19T05:31:59;7.70;99.90
31597;DHT22;18201;50.978;7.034;2023-05-19T05:32:30;7.70;99.90
31597;DHT22;18201;50.978;7.034;2023-05-19T05:33:01;7.70;99.90
31597;DHT22;18201;50.978;7.034;2023-05-19T05:33:33;7.70;99.90
31597;DHT22;18201;50.978;7.034;2023-05-19T05:34:05;7.70;99.90
31597;DHT22;18201;50.978;7.034;2023-05-19T05:34:36;7.80;99.90
31597;DHT22;18201;50.978;7.034;2023-05-19T05:35:10;7.80;99.90
31597;DHT22;18201;50.978;7.034;2023-05-19T05:35:41;7.80;99.90
31597;DHT22;18201;50.978;7.034;2023-05-19T05:36:12;7.90;99.90
31597;DHT22;18201;50.978;7.034;2023-05-19T05:36:44;7.90;99.90
31597;DHT22;18201;50.978;7.034;2023-05-19T05:37:15;7.90;99.90
31597;DHT22;18201;50.978;7.034;2023-05-19T05:37:46;7.90;99.90
31597;DHT22;18201;50.978;7.034;2023-05-19T05:38:18;7.90;99.90
31597;DHT22;18201;50.978;7.034;2023-05-19T05:38:48;8.00;99.90
31597;DHT22;18201;50.978;7.034;2023-05-19T05:39:20;8.00;99.90
31597;DHT22;18201;50.978;7.034;2023-05-19T05:39:54;8.00;99.90
31597;DHT22;18201;50.978;7.034;2023-05-19T05:40:25;8.00;99.90
31597;DHT22;18201;50.978;7.034;2023-05-19T05:40:57;8.10;99.90
31597;DHT22;18201;50.978;7.034;2023-05-19T05:41:28;8.10;99.90
31597;DHT22;18201;50.978;7.034;2023-05-19T05:42:05;8.10;99.90
31597;DHT22;18201;50.978;7.034;2023-05-19T05:42:36;8.10;99.90
31597;DHT22;18201;50.978;7.034;2023-05-19T05:43:07;8.10;99.90
31597;DHT22;18201;50.978;7.034;2023-05-19T05:43:38;8.10;99.90
31597;DHT22;18201;50.978;7.034;2023-05-19T05:44:09;8.20;99.90
31597;DHT22;18201;50.978;7.034;2023-05-19T05:44:41;8.20;99.90
31597;DHT22;18201;50.978;7.034;2023-05-19T05:45:13;8.20;99.90
31597;DHT22;18201;50.978;7.034;2023-05-19T05:45:45;8.20;99.90
31597;DHT22;18201;50.978;7.034;2023-05-19T05:46:17;8.30;99.90
31597;DHT22;18201;50.978;7.034;2023-05-19T05:46:49;8.30;99.90
31597;DHT22;18201;50.978;7.034;2023-05-19T05:47:20;8.30;99.90
31597;DHT22;18201;50.978;7.034;2023-05-19T05:47:52;8.30;99.90
31597;DHT22;18201;50.978;7.034;2023-05-19T05:48:24;8.30;99.90
31597;DHT22;18201;50.978;7.034;2023-05-19T05:48:56;8.30;99.90
31597;DHT22;18201;50.978;7.034;2023-05-19T05:49:29;8.40;99.90
31597;DHT22;18201;50.978;7.034;2023-05-19T05:50:01;8.40;99.90
31597;DHT22;18201;50.978;7.034;2023-05-19T05:50:32;8.40;99.90
31597;DHT22;18201;50.978;7.034;2023-05-19T05:51:05;8.40;99.90
31597;DHT22;18201;50.978;7.034;2023-05-19T05:51:36;8.40;99.90
31597;DHT22;18201;50.978;7.034;2023-05-19T05:52:09;8.40;99.90
31597;DHT22;18201;50.978;7.034;2023-05-19T05:52:45;8.50;99.90
31597;DHT22;18201;50.978;7.034;2023-05-19T05:53:18;8.50;99.90
31597;DHT22;18201;50.978;7.034;2023-05-19T05:53:51;8.50;99.90
31597;DHT22;18201;50.978;7.034;2023-05-19T05:54:24;8.50;99.90
31597;DHT22;18201;50.978;7.034;2023-05-19T05:54:57;8.50;99.90
31597;DHT22;18201;50.978;7.034;2023-05-19T05:55:28;8.60;99.90
31597;DHT22;18201;50.978;7.034;2023-05-19T05:56:01;8.60;99.90
31597;DHT22;18201;50.978;7.034;2023-05-19T05:56:34;8.60;99.90
31597;DHT22;18201;50.978;7.034;2023-05-19T05:57:07;8.60;99.90
31597;DHT22;18201;50.978;7.034;2023-05-19T05:57:39;8.60;99.90
31597;DHT22;18201;50.978;7.034;2023-05-19T05:58:11;8.70;99.90
31597;DHT22;18201;50.978;7.034;2023-05-19T05:58:45;8.70;99.90
31597;DHT22;18201;50.978;7.034;2023-05-19T05:59:18;8.70;99.90
31597;DHT22;18201;50.978;7.034;2023-05-19T05:59:49;8.70;99.90
31597;DHT22;18201;50.978;7.034;2023-05-19T06:00:21;8.70;99.90
31597;DHT22;18201;50.978;7.034;2023-05-19T06:00:54;8.80;99.90
31597;DHT22;18201;50.978;7.034;2023-05-19T06:01:27;8.80;99.90
31597;DHT22;18201;50.978;7.034;2023-05-19T06:02:00;8.80;99.90
31597;DHT22;18201;50.978;7.034;2023-05-19T06:02:32;8.90;99.90
31597;DHT22;18201;50.978;7.034;2023-05-19T06:03:03;8.90;99.90
31597;DHT22;18201;50.978;7.034;2023-05-19T06:03:34;8.90;99.90
31597;DHT22;18201;50.978;7.034;2023-05-19T06:04:07;8.90;99.90
31597;DHT22;18201;50.978;7.034;2023-05-19T06:04:38;9.00;99.90
31597;DHT22;18201;50.978;7.034;2023-05-19T06:05:10;9.00;99.90
31597;DHT22;18201;50.978;7.034;2023-05-19T06:05:43;9.00;99.90
31597;DHT22;18201;50.978;7.034;2023-05-19T06:06:15;9.00;99.90
31597;DHT22;18201;50.978;7.034;2023-05-19T06:06:46;9.00;99.90
31597;DHT22;18201;50.978;7.034;2023-05-19T06:07:18;9.10;99.90
31597;DHT22;18201;50.978;7.034;2023-05-19T06:07:49;9.10;99.90
31597;DHT22;18201;50.978;7.034;2023-05-19T06:08:20;9.10;99.90
31597;DHT22;18201;50.978;7.034;2023-05-19T06:08:51;9.10;99.90
31597;DHT22;18201;50.978;7.034;2023-05-19T06:09:23;9.10;99.90
31597;DHT22;18201;50.978;7.034;2023-05-19T06:09:53;9.10;99.90
31597;DHT22;18201;50.978;7.034;2023-05-19T06:10:27;9.20;99.90
31597;DHT22;18201;50.978;7.034;2023-05-19T06:10:59;9.20;99.90
31597;DHT22;18201;50.978;7.034;2023-05-19T06:11:30;9.20;99.90
31597;DHT22;18201;50.978;7.034;2023-05-19T06:12:01;9.20;99.90
31597;DHT22;18201;50.978;7.034;2023-05-19T06:12:33;9.20;99.90
31597;DHT22;18201;50.978;7.034;2023-05-19T06:13:05;9.20;99.90
31597;DHT22;18201;50.978;7.034;2023-05-19T06:13:36;9.20;99.90
31597;DHT22;18201;50.978;7.034;2023-05-19T06:14:08;9.30;99.90
31597;DHT22;18201;50.978;7.034;2023-05-19T06:14:39;9.30;99.90
31597;DHT22;18201;50.978;7.034;2023-05-19T06:15:10;9.30;99.90
31597;DHT22;18201;50.978;7.034;2023-05-19T06:15:42;9.30;99.90
31597;DHT22;18201;50.978;7.034;2023-05-19T06:16:14;9.30;99.90
31597;DHT22;18201;50.978;7.034;2023-05-19T06:16:45;9.40;99.90
31597;DHT22;18201;50.978;7.034;2023-05-19T06:17:17;9.40;99.90
31597;DHT22;18201;50.978;7.034;2023-05-19T06:17:48;9.40;99.90
31597;DHT22;18201;50.978;7.034;2023-05-19T07:37:33;11.80;99.90
31597;DHT22;18201;50.978;7.034;2023-05-19T07:38:05;11.80;99.90
31597;DHT22;18201;50.978;7.034;2023-05-19T07:38:37;11.90;99.90
31597;DHT22;18201;50.978;7.034;2023-05-19T07:39:07;11.90;99.90
31597;DHT22;18201;50.978;7.034;2023-05-19T07:39:39;12.00;99.90
31597;DHT22;18201;50.978;7.034;2023-05-19T07:40:11;12.00;99.90
31597;DHT22;18201;50.978;7.034;2023-05-19T07:40:42;12.00;99.90
31597;DHT22;18201;50.978;7.034;2023-05-19T07:41:13;12.00;99.90
31597;DHT22;18201;50.978;7.034;2023-05-19T07:41:44;12.00;99.90
31597;DHT22;18201;50.978;7.034;2023-05-19T07:42:22;12.10;99.90
31597;DHT22;18201;50.978;7.034;2023-05-19T07:42:55;12.10;99.90
31597;DHT22;18201;50.978;7.034;2023-05-19T07:43:26;12.20;99.90
31597;DHT22;18201;50.978;7.034;2023-05-19T07:43:58;12.20;99.90
31597;DHT22;18201;50.978;7.034;2023-05-19T07:44:30;12.20;99.90
31597;DHT22;18201;50.978;7.034;2023-05-19T07:45:03;12.20;99.90
31597;DHT22;18201;50.978;7.034;2023-05-19T07:45:34;12.30;99.90
31597;DHT22;18201;50.978;7.034;2023-05-19T07:46:06;12.30;99.90
31597;DHT22;18201;50.978;7.034;2023-05-19T07:46:37;12.40;99.90
31597;DHT22;18201;50.978;7.034;2023-05-19T07:47:08;12.50;99.90
31597;DHT22;18201;50.978;7.034;2023-05-19T07:47:40;12.50;99.90
31597;DHT22;18201;50.978;7.034;2023-05-19T07:48:11;12.50;99.90
31597;DHT22;18201;50.978;7.034;2023-05-19T07:48:42;12.50;99.90
31597;DHT22;18201;50.978;7.034;2023-05-19T07:49:14;12.50;99.90
31597;DHT22;18201;50.978;7.034;2023-05-19T07:49:45;12.50;99.90
31597;DHT22;18201;50.978;7.034;2023-05-19T07:50:16;12.50;99.90
31597;DHT22;18201;50.978;7.034;2023-05-19T07:50:47;12.50;99.90
31597;DHT22;18201;50.978;7.034;2023-05-19T07:51:18;12.60;99.90
31597;DHT22;18201;50.978;7.034;2023-05-19T07:51:50;12.70;99.90
31597;DHT22;18201;50.978;7.034;2023-05-19T07:52:21;12.80;99.90
31597;DHT22;18201;50.978;7.034;2023-05-19T07:52:54;12.90;99.90
31597;DHT22;18201;50.978;7.034;2023-05-19T07:53:26;13.00;99.90
31597;DHT22;18201;50.978;7.034;2023-05-19T07:53:57;13.00;99.90
31597;DHT22;18201;50.978;7.034;2023-05-19T07:54:29;13.00;99.90
31597;DHT22;18201;50.978;7.034;2023-05-19T07:55:00;13.10;99.90
31597;DHT22;18201;50.978;7.034;2023-05-19T07:55:31;13.10;99.90
31597;DHT22;18201;50.978;7.034;2023-05-19T07:56:03;13.10;99.90
31597;DHT22;18201;50.978;7.034;2023-05-19T07:56:34;13.10;99.90
31597;DHT22;18201;50.978;7.034;2023-05-19T07:57:05;13.20;99.90
31597;DHT22;18201;50.978;7.034;2023-05-19T07:57:36;13.20;99.90
31597;DHT22;18201;50.978;7.034;2023-05-19T07:58:07;13.20;99.90
31597;DHT22;18201;50.978;7.034;2023-05-19T07:58:38;13.20;99.90
31597;DHT22;18201;50.978;7.034;2023-05-19T07:59:10;13.20;99.90
31597;DHT22;18201;50.978;7.034;2023-05-19T07:59:41;13.20;99.90
31597;DHT22;18201;50.978;7.034;2023-05-19T08:00:13;13.20;99.90
31597;DHT22;18201;50.978;7.034;2023-05-19T08:00:45;13.20;99.90
31597;DHT22;18201;50.978;7.034;2023-05-19T08:01:15;13.20;99.90
31597;DHT22;18201;50.978;7.034;2023-05-19T08:01:48;13.20;99.90
31597;DHT22;18201;50.978;7.034;2023-05-19T08:02:19;13.10;99.90
31597;DHT22;18201;50.978;7.034;2023-05-19T08:02:49;13.10;99.90
31597;DHT22;18201;50.978;7.034;2023-05-19T08:03:22;13.10;99.90
31597;DHT22;18201;50.978;7.034;2023-05-19T08:03:53;13.10;99.90
31597;DHT22;18201;50.978;7.034;2023-05-19T08:04:25;13.10;99.90
31597;DHT22;18201;50.978;7.034;2023-05-19T08:04:57;13.10;99.90
31597;DHT22;18201;50.978;7.034;2023-05-19T08:05:28;13.10;99.90
31597;DHT22;18201;50.978;7.034;2023-05-19T08:05:59;13.10;99.90
31597;DHT22;18201;50.978;7.034;2023-05-19T08:06:30;13.10;99.90
31597;DHT22;18201;50.978;7.034;2023-05-19T08:07:02;13.10;99.90
31597;DHT22;18201;50.978;7.034;2023-05-19T08:07:33;13.10;99.90
31597;DHT22;18201;50.978;7.034;2023-05-19T08:08:06;13.20;99.90
31597;DHT22;18201;50.978;7.034;2023-05-19T08:08:37;13.20;99.90
31597;DHT22;18201;50.978;7.034;2023-05-19T08:09:09;13.20;99.90
31597;DHT22;18201;50.978;7.034;2023-05-19T08:09:39;13.20;99.90
31597;DHT22;18201;50.978;7.034;2023-05-19T08:10:11;13.20;99.90
31597;DHT22;18201;50.978;7.034;2023-05-19T08:10:42;13.30;99.90
31597;DHT22;18201;50.978;7.034;2023-05-19T08:11:14;13.30;99.90
31597;DHT22;18201;50.978;7.034;2023-05-19T08:11:45;13.30;99.90
31597;DHT22;18201;50.978;7.034;2023-05-19T08:12:16;13.30;99.90
31597;DHT22;18201;50.978;7.034;2023-05-19T08:12:48;13.20;99.90
31597;DHT22;18201;50.978;7.034;2023-05-19T08:13:19;13.30;99.90
31597;DHT22;18201;50.978;7.034;2023-05-19T08:13:50;13.30;99.90
31597;DHT22;18201;50.978;7.034;2023-05-19T08:14:21;13.30;99.90
31597;DHT22;18201;50.978;7.034;2023-05-19T08:14:52;13.30;99.90
31597;DHT22;18201;50.978;7.034;2023-05-19T08:15:23;13.40;99.90
31597;DHT22;18201;50.978;7.034;2023-05-19T08:15:55;13.40;99.90
31597;DHT22;18201;50.978;7.034;2023-05-19T08:16:29;13.40;99.90
31597;DHT22;18201;50.978;7.034;2023-05-19T08:17:00;13.40;99.90
31597;DHT22;18201;50.978;7.034;2023-05-19T08:17:31;13.40;99.90
31597;DHT22;18201;50.978;7.034;2023-05-19T08:18:02;13.40;99.90
31597;DHT22;18201;50.978;7.034;2023-05-19T08:18:34;13.50;99.90
31597;DHT22;18201;50.978;7.034;2023-05-19T08:19:06;13.40;99.90
31597;DHT22;18201;50.978;7.034;2023-05-19T08:19:37;13.50;99.90
31597;DHT22;18201;50.978;7.034;2023-05-19T08:20:10;13.50;99.90
31597;DHT22;18201;50.978;7.034;2023-05-19T08:20:41;13.50;99.90
31597;DHT22;18201;50.978;7.034;2023-05-19T08:21:12;13.50;99.90
31597;DHT22;18201;50.978;7.034;2023-05-19T08:21:44;13.50;99.90
31597;DHT22;18201;50.978;7.034;2023-05-19T08:22:15;13.50;99.90
31597;DHT22;18201;50.978;7.034;2023-05-19T08:22:47;13.50;99.90
31597;DHT22;18201;50.978;7.034;2023-05-19T08:23:20;13.50;99.90
31597;DHT22;18201;50.978;7.034;2023-05-19T08:23:51;13.60;99.90
31597;DHT22;18201;50.978;7.034;2023-05-19T08:24:23;13.50;99.90
31597;DHT22;18201;50.978;7.034;2023-05-19T08:24:54;13.60;99.90
31597;DHT22;18201;50.978;7.034;2023-05-19T08:25:26;13.60;99.90
31597;DHT22;18201;50.978;7.034;2023-05-19T08:25:59;13.60;99.90
31597;DHT22;18201;50.978;7.034;2023-05-19T08:26:31;13.60;99.90
31597;DHT22;18201;50.978;7.034;2023-05-19T08:27:03;13.60;99.90
31597;DHT22;18201;50.978;7.034;2023-05-19T08:27:35;13.60;99.90
31597;DHT22;18201;50.978;7.034;2023-05-19T08:28:05;13.60;99.90
31597;DHT22;18201;50.978;7.034;2023-05-19T08:28:38;13.60;99.90
31597;DHT22;18201;50.978;7.034;2023-05-19T08:29:08;13.60;99.90
31597;DHT22;18201;50.978;7.034;2023-05-19T08:29:39;13.70;99.90
31597;DHT22;18201;50.978;7.034;2023-05-19T08:30:12;13.80;99.90
31597;DHT22;18201;50.978;7.034;2023-05-19T08:30:42;13.80;99.90
31597;DHT22;18201;50.978;7.034;2023-05-19T08:31:13;13.90;99.90
31597;DHT22;18201;50.978;7.034;2023-05-19T08:31:47;14.00;99.90
31597;DHT22;18201;50.978;7.034;2023-05-19T08:32:18;14.00;99.90
31597;DHT22;18201;50.978;7.034;2023-05-19T08:32:50;14.00;99.90
31597;DHT22;18201;50.978;7.034;2023-05-19T08:33:22;14.00;99.90
31597;DHT22;18201;50.978;7.034;2023-05-19T08:33:54;14.10;99.90
31597;DHT22;18201;50.978;7.034;2023-05-19T08:34:25;14.10;99.90
31597;DHT22;18201;50.978;7.034;2023-05-19T08:34:56;14.10;99.90
31597;DHT22;18201;50.978;7.034;2023-05-19T08:35:28;14.10;99.90
31597;DHT22;18201;50.978;7.034;2023-05-19T08:35:59;14.10;99.90
31597;DHT22;18201;50.978;7.034;2023-05-19T08:36:31;14.10;99.90
31597;DHT22;18201;50.978;7.034;2023-05-19T08:37:03;14.20;99.90
31597;DHT22;18201;50.978;7.034;2023-05-19T08:37:35;14.20;99.90
31597;DHT22;18201;50.978;7.034;2023-05-19T08:38:08;14.20;99.90
31597;DHT22;18201;50.978;7.034;2023-05-19T08:38:40;14.30;99.90
31597;DHT22;18201;50.978;7.034;2023-05-19T08:39:12;14.30;99.90
31597;DHT22;18201;50.978;7.034;2023-05-19T08:39:43;14.40;99.90
31597;DHT22;18201;50.978;7.034;2023-05-19T08:40:16;14.40;99.90
31597;DHT22;18201;50.978;7.034;2023-05-19T08:40:48;14.40;99.70
31597;DHT22;18201;50.978;7.034;2023-05-19T08:41:19;14.50;99.50
31597;DHT22;18201;50.978;7.034;2023-05-19T08:41:51;14.60;99.90
31597;DHT22;18201;50.978;7.034;2023-05-19T08:42:23;14.60;99.90
31597;DHT22;18201;50.978;7.034;2023-05-19T08:42:54;14.60;99.90
31597;DHT22;18201;50.978;7.034;2023-05-19T08:43:25;14.60;99.90
31597;DHT22;18201;50.978;7.034;2023-05-19T08:43:57;14.60;99.10
31597;DHT22;18201;50.978;7.034;2023-05-19T08:44:28;14.60;99.00
31597;DHT22;18201;50.978;7.034;2023-05-19T08:45:02;14.60;97.40
31597;DHT22;18201;50.978;7.034;2023-05-19T08:45:33;14.60;96.10
31597;DHT22;18201;50.978;7.034;2023-05-19T08:46:04;14.70;97.30
31597;DHT22;18201;50.978;7.034;2023-05-19T08:46:37;14.70;98.00
31597;DHT22;18201;50.978;7.034;2023-05-19T08:47:09;14.70;96.10
31597;DHT22;18201;50.978;7.034;2023-05-19T08:47:45;14.70;96.30
31597;DHT22;18201;50.978;7.034;2023-05-19T08:48:17;14.70;96.80
31597;DHT22;18201;50.978;7.034;2023-05-19T08:48:53;14.70;96.70
31597;DHT22;18201;50.978;7.034;2023-05-19T08:49:32;14.70;96.60
31597;DHT22;18201;50.978;7.034;2023-05-19T08:50:06;14.70;97.00
31597;DHT22;18201;50.978;7.034;2023-05-19T08:50:40;14.80;96.60
31597;DHT22;18201;50.978;7.034;2023-05-19T08:51:23;14.80;96.50
31597;DHT22;18201;50.978;7.034;2023-05-19T08:52:01;14.80;94.60
31597;DHT22;18201;50.978;7.034;2023-05-19T08:52:42;14.80;94.70
31597;DHT22;18201;50.978;7.034;2023-05-19T08:53:18;14.80;94.40
31597;DHT22;18201;50.978;7.034;2023-05-19T08:53:58;14.80;94.70
31597;DHT22;18201;50.978;7.034;2023-05-19T08:54:35;14.80;93.80
31597;DHT22;18201;50.978;7.034;2023-05-19T08:55:11;14.80;92.70
31597;DHT22;18201;50.978;7.034;2023-05-19T08:55:49;14.80;92.60
31597;DHT22;18201;50.978;7.034;2023-05-19T08:56:24;14.80;92.60
31597;DHT22;18201;50.978;7.034;2023-05-19T08:56:57;14.90;92.60
31597;DHT22;18201;50.978;7.034;2023-05-19T08:57:28;14.90;92.70
31597;DHT22;18201;50.978;7.034;2023-05-19T08:58:00;14.90;92.60
31597;DHT22;18201;50.978;7.034;2023-05-19T08:58:34;14.90;92.70
31597;DHT22;18201;50.978;7.034;2023-05-19T08:59:05;15.00;92.80
31597;DHT22;18201;50.978;7.034;2023-05-19T08:59:38;15.00;92.90
31597;DHT22;18201;50.978;7.034;2023-05-19T09:00:12;15.00;92.80
31597;DHT22;18201;50.978;7.034;2023-05-19T09:00:44;15.00;92.70
31597;DHT22;18201;50.978;7.034;2023-05-19T09:01:15;15.10;93.30
31597;DHT22;18201;50.978;7.034;2023-05-19T09:01:48;15.10;93.40
31597;DHT22;18201;50.978;7.034;2023-05-19T09:02:21;15.10;92.80